Time;durP1;ratioP1;P1;durP2;ratioP2;P2;SDS_P1;SDS_P2;PMS_P1;PMS_P2;Temp;Humidity;BMP_temperature;BMP_pressure;BME280_temperature;BME280_humidity;BME280_pressure;Samples;Min_cycle;Max_cycle;Signal;HPM_P1;HPM_P2
2023/09/16 00:01:33;;;;;;;11.35;9.35;;;13.20;99.90;;;;;;4969477;28;20052;-80
2023/09/16 00:03:59;;;;;;;9.48;7.72;;;13.20;99.90;;;;;;4986652;28;20046;-82
2023/09/16 00:06:24;;;;;;;10.85;9.57;;;13.20;99.90;;;;;;4972310;28;20061;-82
2023/09/16 00:08:50;;;;;;;8.98;8.13;;;13.20;99.90;;;;;;4971951;28;20413;-82
2023/09/16 00:11:16;;;;;;;8.82;7.75;;;13.20;99.90;;;;;;4976087;28;20122;-82
2023/09/16 00:13:43;;;;;;;10.02;9.02;;;13.20;99.90;;;;;;4970304;28;20103;-82
2023/09/16 00:16:12;;;;;;;9.82;8.70;;;13.20;99.90;;;;;;4994182;28;20512;-80
2023/09/16 00:18:38;;;;;;;8.98;7.85;;;13.20;99.90;;;;;;4987169;28;20046;-81
2023/09/16 00:21:04;;;;;;;11.93;10.73;;;13.20;99.90;;;;;;4978340;28;20044;-87
2023/09/16 00:23:31;;;;;;;9.18;8.27;;;13.20;99.90;;;;;;4991530;28;20062;-87
2023/09/16 00:25:58;;;;;;;9.77;8.77;;;13.20;99.90;;;;;;4977364;28;20060;-87
2023/09/16 00:28:27;;;;;;;9.70;8.75;;;13.20;99.90;;;;;;4977367;28;20125;-89
2023/09/16 00:30:52;;;;;;;9.23;8.32;;;13.20;99.90;;;;;;4975900;28;20037;-89
2023/09/16 00:33:19;;;;;;;10.27;9.27;;;13.20;99.90;;;;;;4976912;28;20057;-88
2023/09/16 00:35:45;;;;;;;12.57;11.18;;;13.20;99.90;;;;;;4976946;28;20043;-87
2023/09/16 00:38:11;;;;;;;11.13;10.02;;;13.20;99.90;;;;;;4993527;28;20053;-89
2023/09/16 00:40:37;;;;;;;10.35;9.10;;;13.20;99.90;;;;;;4992697;28;20436;-88
2023/09/16 00:43:06;;;;;;;10.50;9.45;;;13.10;99.90;;;;;;4973057;28;20034;-88
2023/09/16 00:45:33;;;;;;;9.85;8.65;;;13.20;99.90;;;;;;4985611;28;20061;-89
2023/09/16 00:48:02;;;;;;;11.40;10.30;;;13.20;99.90;;;;;;4973455;28;20099;-89
2023/09/16 00:50:28;;;;;;;11.07;9.97;;;13.20;99.90;;;;;;4976361;28;20663;-88
2023/09/16 00:52:56;;;;;;;12.65;11.38;;;13.10;99.90;;;;;;4994889;28;20580;-89
2023/09/16 00:55:23;;;;;;;13.75;12.55;;;13.20;99.90;;;;;;4979779;28;20057;-88
2023/09/16 00:57:51;;;;;;;10.93;9.80;;;13.20;99.90;;;;;;4994147;28;20050;-88
2023/09/16 01:00:17;;;;;;;10.20;9.20;;;13.20;99.90;;;;;;4993665;28;20058;-88
2023/09/16 01:02:44;;;;;;;15.32;13.70;;;13.20;99.90;;;;;;4979898;28;20370;-88
2023/09/16 01:05:17;;;;;;;17.25;15.50;;;13.20;99.90;;;;;;4996071;28;20042;-87
2023/09/16 01:07:45;;;;;;;12.20;11.00;;;13.20;99.90;;;;;;4979542;28;20393;-88
2023/09/16 01:10:15;;;;;;;10.63;9.63;;;13.10;99.90;;;;;;4978107;28;20053;-87
2023/09/16 01:12:45;;;;;;;11.15;10.00;;;13.10;99.90;;;;;;4978425;28;20057;-88
2023/09/16 01:15:14;;;;;;;11.82;10.63;;;13.10;99.90;;;;;;4975030;28;20038;-87
2023/09/16 01:17:49;;;;;;;11.27;10.25;;;13.00;99.90;;;;;;4978251;28;20046;-87
2023/09/16 01:20:15;;;;;;;15.20;12.95;;;13.00;99.90;;;;;;4974788;28;20058;-87
2023/09/16 01:22:49;;;;;;;11.75;10.60;;;13.00;99.90;;;;;;4979062;28;20500;-88
2023/09/16 01:25:15;;;;;;;10.90;9.80;;;13.00;99.90;;;;;;4994426;28;20570;-87
2023/09/16 01:27:44;;;;;;;11.50;10.25;;;13.00;99.90;;;;;;4989551;28;20110;-87
2023/09/16 01:30:12;;;;;;;11.50;10.30;;;13.00;99.90;;;;;;4981109;28;20516;-87
2023/09/16 01:33:05;;;;;;;14.10;12.80;;;13.10;99.90;;;;;;4993785;28;20053;-87
2023/09/16 01:35:37;;;;;;;12.07;10.90;;;13.10;99.90;;;;;;4975949;28;20149;-87
2023/09/16 01:38:06;;;;;;;19.98;17.73;;;13.00;99.90;;;;;;4973522;28;20041;-86
2023/09/16 01:40:33;;;;;;;12.82;11.18;;;13.00;99.90;;;;;;4975810;28;20048;-86
2023/09/16 01:43:03;;;;;;;11.25;10.05;;;13.00;99.90;;;;;;4976501;28;21505;-87
2023/09/16 01:45:42;;;;;;;;;;;13.00;99.90;;;;;;4970691;28;20583;-86
2023/09/16 01:48:07;;;;;;;9.15;7.40;;;12.90;99.90;;;;;;4989458;28;20439;-86
2023/09/16 01:50:34;;;;;;;8.60;6.60;;;12.80;99.90;;;;;;4988078;28;20086;-86
2023/09/16 01:53:01;;;;;;;8.65;7.22;;;12.80;99.90;;;;;;4975795;28;20046;-86
2023/09/16 01:55:27;;;;;;;8.18;7.38;;;12.70;99.90;;;;;;4978641;28;20048;-87
2023/09/16 01:57:53;;;;;;;7.50;6.70;;;12.70;99.90;;;;;;4989000;28;20115;-87
2023/09/16 02:00:19;;;;;;;7.28;6.57;;;12.70;99.90;;;;;;4976986;28;20073;-86
2023/09/16 02:02:47;;;;;;;7.88;7.07;;;12.70;99.90;;;;;;4976201;28;20076;-86
2023/09/16 02:05:13;;;;;;;7.15;6.45;;;12.70;99.90;;;;;;4980627;28;20527;-86
2023/09/16 02:07:39;;;;;;;8.25;6.45;;;12.70;99.90;;;;;;4997546;28;20046;-86
2023/09/16 02:10:05;;;;;;;11.32;10.23;;;12.70;99.90;;;;;;5000556;28;20492;-86
2023/09/16 02:12:33;;;;;;;7.20;6.50;;;12.60;99.90;;;;;;4998888;28;20453;-86
2023/09/16 02:14:58;;;;;;;8.70;7.85;;;12.60;99.90;;;;;;5000021;28;20053;-86
2023/09/16 02:17:25;;;;;;;9.85;8.30;;;12.60;99.90;;;;;;4985197;28;20046;-86
2023/09/16 02:19:54;;;;;;;10.23;8.02;;;12.60;99.90;;;;;;4985204;28;20065;-86
2023/09/16 02:22:19;;;;;;;7.35;6.63;;;12.50;99.90;;;;;;4985891;28;20556;-86
2023/09/16 02:24:45;;;;;;;7.32;6.63;;;12.50;99.90;;;;;;4983368;28;20123;-86
2023/09/16 02:27:12;;;;;;;9.25;8.23;;;12.50;99.90;;;;;;4985517;28;20042;-86
2023/09/16 02:29:38;;;;;;;13.43;12.05;;;12.60;99.90;;;;;;4998795;28;20058;-86
2023/09/16 02:32:04;;;;;;;10.10;9.10;;;12.50;99.90;;;;;;4984987;28;20030;-86
2023/09/16 02:34:35;;;;;;;9.15;8.25;;;12.50;99.90;;;;;;4984215;28;20651;-86
2023/09/16 02:37:01;;;;;;;8.63;7.82;;;12.50;99.90;;;;;;4976424;28;20065;-86
2023/09/16 02:39:27;;;;;;;11.20;10.18;;;12.50;99.90;;;;;;4988243;28;20057;-86
2023/09/16 02:41:52;;;;;;;15.65;14.02;;;12.50;99.90;;;;;;4975226;28;20503;-86
2023/09/16 02:44:18;;;;;;;14.75;13.43;;;12.50;99.90;;;;;;4985988;28;20103;-85
2023/09/16 02:46:44;;;;;;;13.98;12.70;;;12.40;99.90;;;;;;4986582;28;20397;-86
2023/09/16 02:49:11;;;;;;;11.57;10.57;;;12.40;99.90;;;;;;4984378;28;20037;-86
2023/09/16 02:51:37;;;;;;;10.80;9.70;;;12.40;99.90;;;;;;4979511;28;20054;-86
2023/09/16 02:54:05;;;;;;;11.43;10.32;;;12.40;99.90;;;;;;4999567;28;20049;-86
2023/09/16 02:56:31;;;;;;;15.32;13.82;;;12.40;99.90;;;;;;5000618;28;20078;-87
2023/09/16 02:58:57;;;;;;;13.48;12.18;;;12.50;99.90;;;;;;4994892;28;20035;-86
2023/09/16 03:01:23;;;;;;;12.07;10.98;;;12.40;99.90;;;;;;5001274;28;20045;-82
2023/09/16 03:03:48;;;;;;;9.38;8.43;;;12.40;99.90;;;;;;4987739;28;20163;-82
2023/09/16 03:06:14;;;;;;;8.55;7.75;;;12.40;99.90;;;;;;4982327;28;20159;-81
2023/09/16 03:08:40;;;;;;;8.50;7.60;;;12.40;99.90;;;;;;4986233;28;20534;-82
2023/09/16 03:11:06;;;;;;;7.85;7.07;;;12.40;99.90;;;;;;4987239;28;20356;-81
2023/09/16 03:13:32;;;;;;;9.60;8.57;;;12.40;99.90;;;;;;4975936;28;20046;-82
2023/09/16 03:16:18;;;;;;;9.48;8.48;;;12.40;99.90;;;;;;4977915;28;20519;-82
2023/09/16 03:18:45;;;;;;;10.43;9.43;;;12.40;99.90;;;;;;4980558;28;20078;-81
2023/09/16 03:21:12;;;;;;;17.75;15.85;;;12.40;99.90;;;;;;4988962;28;20030;-82
2023/09/16 03:23:38;;;;;;;14.30;12.95;;;12.40;99.90;;;;;;4983248;28;20484;-80
2023/09/16 03:26:07;;;;;;;10.20;9.23;;;12.30;99.90;;;;;;4973581;28;20045;-85
2023/09/16 03:28:33;;;;;;;11.13;10.07;;;12.30;99.90;;;;;;4996514;28;20173;-85
2023/09/16 03:30:58;;;;;;;11.43;10.43;;;12.30;99.90;;;;;;5002784;28;20458;-85
2023/09/16 03:33:24;;;;;;;11.27;10.10;;;12.20;99.90;;;;;;4986041;28;20048;-86
2023/09/16 03:35:50;;;;;;;9.52;8.68;;;12.30;99.90;;;;;;4980222;28;20162;-85
2023/09/16 03:38:16;;;;;;;8.10;6.85;;;12.20;99.90;;;;;;4983346;28;20132;-86
2023/09/16 03:40:42;;;;;;;7.97;6.63;;;12.10;99.90;;;;;;4977525;28;20051;-87
2023/09/16 03:43:08;;;;;;;7.47;6.78;;;12.10;99.90;;;;;;4974681;28;20053;-86
2023/09/16 03:45:34;;;;;;;7.70;6.90;;;12.00;99.90;;;;;;4976007;28;20658;-86
2023/09/16 03:48:00;;;;;;;8.93;8.13;;;12.00;99.90;;;;;;5001193;28;20591;-86
2023/09/16 03:50:27;;;;;;;8.63;7.72;;;12.00;99.90;;;;;;4985455;28;20045;-87
2023/09/16 03:52:53;;;;;;;8.57;7.47;;;12.00;99.90;;;;;;4981117;28;20038;-86
2023/09/16 03:55:19;;;;;;;7.88;7.07;;;12.00;99.90;;;;;;4999816;28;20045;-85
2023/09/16 03:57:45;;;;;;;8.20;7.40;;;12.00;99.90;;;;;;4976203;28;20076;-86
2023/09/16 04:00:11;;;;;;;8.07;7.28;;;11.90;99.90;;;;;;4979631;28;20046;-87
2023/09/16 04:02:38;;;;;;;8.60;7.68;;;11.90;99.90;;;;;;4992211;28;20138;-86
2023/09/16 04:05:05;;;;;;;9.20;8.20;;;11.90;99.90;;;;;;4986400;28;20488;-87
2023/09/16 04:07:31;;;;;;;9.10;8.27;;;11.80;99.90;;;;;;5005858;28;20701;-86
2023/09/16 04:09:57;;;;;;;9.82;8.82;;;11.80;99.90;;;;;;5001832;27;20069;-87
2023/09/16 04:12:23;;;;;;;9.52;8.57;;;11.80;99.90;;;;;;5020411;28;20152;-86
2023/09/16 04:14:52;;;;;;;10.35;9.27;;;11.80;99.90;;;;;;5006716;27;20041;-86
2023/09/16 04:17:19;;;;;;;8.98;7.88;;;11.80;99.90;;;;;;4993482;28;20103;-86
2023/09/16 04:19:44;;;;;;;8.52;7.38;;;11.70;99.90;;;;;;4996230;28;20127;-86
2023/09/16 04:22:10;;;;;;;8.77;7.88;;;11.80;99.90;;;;;;4990349;28;20116;-86
2023/09/16 04:24:36;;;;;;;8.88;8.07;;;11.70;99.90;;;;;;5009261;28;20061;-86
2023/09/16 04:27:02;;;;;;;9.68;8.68;;;11.70;99.90;;;;;;4992774;28;20045;-84
2023/09/16 04:29:28;;;;;;;9.52;8.63;;;11.80;99.90;;;;;;5016477;27;20626;-87
2023/09/16 04:31:54;;;;;;;8.38;7.47;;;11.80;99.90;;;;;;4993166;28;20076;-86
2023/09/16 04:34:19;;;;;;;7.30;6.60;;;11.80;99.90;;;;;;5018740;28;20144;-86
2023/09/16 04:36:45;;;;;;;9.68;7.38;;;11.80;99.90;;;;;;5001250;28;20109;-87
2023/09/16 04:39:11;;;;;;;8.68;7.88;;;11.80;99.90;;;;;;5017594;27;20132;-87
2023/09/16 04:41:37;;;;;;;9.93;8.93;;;11.80;99.90;;;;;;4999502;28;20057;-87
2023/09/16 04:44:03;;;;;;;10.80;9.05;;;11.70;99.90;;;;;;5006305;28;20048;-86
2023/09/16 04:46:30;;;;;;;11.50;10.40;;;11.70;99.90;;;;;;5007226;28;20491;-86
2023/09/16 04:48:56;;;;;;;11.43;9.95;;;11.60;99.90;;;;;;5015756;28;20045;-87
2023/09/16 04:51:21;;;;;;;10.18;9.18;;;11.60;99.90;;;;;;5024179;28;20048;-87
2023/09/16 04:53:49;;;;;;;11.15;9.95;;;11.60;99.90;;;;;;5015420;28;20053;-87
2023/09/16 04:56:15;;;;;;;11.23;10.13;;;11.60;99.90;;;;;;5016440;28;20503;-86
2023/09/16 04:58:41;;;;;;;10.68;9.68;;;11.50;99.90;;;;;;5009678;27;20051;-86
2023/09/16 05:01:07;;;;;;;10.30;9.30;;;11.50;99.90;;;;;;5021456;28;20064;-87
2023/09/16 05:03:33;;;;;;;9.05;8.25;;;11.50;99.90;;;;;;5006430;28;20055;-86
2023/09/16 05:06:02;;;;;;;9.02;8.20;;;11.50;99.90;;;;;;5001665;28;20054;-87
2023/09/16 05:08:28;;;;;;;11.43;9.65;;;11.40;99.90;;;;;;5004361;28;20499;-87
2023/09/16 05:10:55;;;;;;;13.63;12.38;;;11.50;99.90;;;;;;5004780;28;20041;-87
2023/09/16 05:13:21;;;;;;;9.07;7.97;;;11.40;99.90;;;;;;4997312;27;20048;-87
2023/09/16 05:15:49;;;;;;;11.80;10.60;;;11.30;99.90;;;;;;5014370;28;20053;-87
2023/09/16 05:18:18;;;;;;;11.30;10.30;;;11.30;99.90;;;;;;5009316;27;20072;-87
2023/09/16 05:20:44;;;;;;;9.88;8.95;;;11.40;99.90;;;;;;4998468;28;20060;-87
2023/09/16 05:23:13;;;;;;;10.43;9.45;;;11.30;99.90;;;;;;5008588;28;20033;-87
2023/09/16 05:25:48;;;;;;;10.15;9.32;;;11.40;99.90;;;;;;5008385;28;20048;-87
2023/09/16 05:28:14;;;;;;;10.20;9.20;;;11.40;99.90;;;;;;5002145;28;20041;-84
2023/09/16 05:30:42;;;;;;;9.95;9.02;;;11.40;99.90;;;;;;4993462;28;20449;-84
2023/09/16 05:33:11;;;;;;;11.18;10.18;;;11.40;99.90;;;;;;5007995;28;20061;-84
2023/09/16 05:35:41;;;;;;;11.15;9.90;;;11.50;99.90;;;;;;5002171;28;20041;-84
2023/09/16 05:38:08;;;;;;;12.38;11.18;;;11.40;99.90;;;;;;5005683;28;20037;-84
2023/09/16 05:40:37;;;;;;;10.20;9.27;;;11.40;99.90;;;;;;5010381;28;20056;-84
2023/09/16 05:43:06;;;;;;;10.00;9.20;;;11.40;99.90;;;;;;5000615;28;20322;-84
2023/09/16 05:46:01;;;;;;;10.05;9.15;;;11.40;99.90;;;;;;5008356;28;20307;-84
2023/09/16 05:48:32;;;;;;;9.80;8.85;;;11.30;99.90;;;;;;5001192;28;20056;-84
2023/09/16 05:50:59;;;;;;;15.57;14.07;;;11.40;99.90;;;;;;5016908;28;20045;-84
2023/09/16 05:53:26;;;;;;;15.98;14.38;;;11.30;99.90;;;;;;5002812;28;20045;-84
2023/09/16 05:55:53;;;;;;;13.60;12.40;;;11.40;99.90;;;;;;5002217;28;20052;-84
2023/09/16 05:58:19;;;;;;;16.42;14.90;;;11.40;99.90;;;;;;5019373;28;20045;-84
2023/09/16 06:00:54;;;;;;;14.48;13.00;;;11.40;99.90;;;;;;5002787;28;20048;-84
2023/09/16 06:03:22;;;;;;;14.07;12.70;;;11.40;99.90;;;;;;5002354;28;20040;-84
2023/09/16 06:05:48;;;;;;;12.77;11.48;;;11.50;99.90;;;;;;4995856;28;20053;-84
2023/09/16 06:08:14;;;;;;;14.65;13.20;;;11.50;99.90;;;;;;5002072;28;20616;-83
2023/09/16 06:10:43;;;;;;;15.80;14.40;;;11.60;99.90;;;;;;5002303;27;20045;-84
2023/09/16 06:13:09;;;;;;;16.05;14.65;;;11.70;99.90;;;;;;5016581;28;20130;-84
2023/09/16 06:15:35;;;;;;;16.45;15.05;;;11.70;99.90;;;;;;5002735;28;20137;-84
2023/09/16 06:18:01;;;;;;;16.63;15.23;;;11.80;99.90;;;;;;4998835;28;20037;-84
2023/09/16 06:20:27;;;;;;;15.38;14.07;;;11.80;99.90;;;;;;5018282;28;20045;-84
2023/09/16 06:22:53;;;;;;;16.02;14.27;;;11.90;99.90;;;;;;5001482;28;20664;-84
2023/09/16 06:25:18;;;;;;;15.07;13.68;;;11.80;99.90;;;;;;4999300;28;20049;-84
2023/09/16 06:27:44;;;;;;;15.75;14.15;;;12.00;99.90;;;;;;5001580;28;20042;-84
2023/09/16 06:30:10;;;;;;;14.90;13.50;;;12.00;99.90;;;;;;5002955;27;20049;-83
2023/09/16 06:32:36;;;;;;;15.18;12.90;;;12.00;99.90;;;;;;5007942;28;20051;-81
2023/09/16 06:35:02;;;;;;;13.25;11.90;;;12.10;99.90;;;;;;5004207;28;20030;-81
2023/09/16 06:37:28;;;;;;;13.82;12.55;;;12.10;99.90;;;;;;5014313;28;20137;-81
2023/09/16 06:39:58;;;;;;;12.32;11.23;;;12.20;99.90;;;;;;5003238;28;20049;-81
2023/09/16 06:42:23;;;;;;;12.57;11.35;;;12.20;99.90;;;;;;4999962;28;20056;-81
2023/09/16 06:44:54;;;;;;;13.52;12.23;;;12.30;99.90;;;;;;5004876;28;20119;-81
2023/09/16 06:47:26;;;;;;;15.45;13.95;;;12.40;99.90;;;;;;5002946;28;20182;-81
2023/09/16 06:49:52;;;;;;;15.50;14.10;;;12.40;99.90;;;;;;4997995;28;20380;-79
2023/09/16 06:52:18;;;;;;;14.35;13.15;;;12.50;99.90;;;;;;5019187;28;20057;-79
2023/09/16 06:54:45;;;;;;;17.27;15.68;;;12.50;99.90;;;;;;5002590;28;20065;-79
2023/09/16 06:57:11;;;;;;;17.98;16.33;;;12.60;99.90;;;;;;5007797;28;20052;-79
2023/09/16 06:59:36;;;;;;;16.98;15.43;;;12.70;99.90;;;;;;5015447;28;20041;-79
2023/09/16 07:02:05;;;;;;;23.45;21.08;;;12.70;99.90;;;;;;5004927;28;20100;-81
2023/09/16 07:04:32;;;;;;;21.73;19.88;;;12.90;99.90;;;;;;5010857;28;20045;-79
2023/09/16 07:06:58;;;;;;;22.60;20.48;;;13.00;99.90;;;;;;5003428;28;20466;-87
2023/09/16 07:09:24;;;;;;;24.58;22.48;;;13.10;99.90;;;;;;5019726;28;20140;-87
2023/09/16 07:11:49;;;;;;;21.83;19.77;;;13.30;99.90;;;;;;5005579;28;20495;-87
2023/09/16 07:14:15;;;;;;;23.35;21.25;;;13.50;99.90;;;;;;5023508;28;20454;-88
2023/09/16 07:16:41;;;;;;;26.00;23.73;;;13.70;99.90;;;;;;5015921;27;20132;-87
2023/09/16 07:19:07;;;;;;;24.42;22.25;;;13.90;99.90;;;;;;5007622;28;20048;-87
2023/09/16 07:21:34;;;;;;;22.88;20.88;;;14.10;99.90;;;;;;5007109;28;20244;-88
2023/09/16 07:24:01;;;;;;;22.88;20.77;;;14.40;99.90;;;;;;5006540;28;20037;-86
2023/09/16 07:26:30;;;;;;;23.45;21.45;;;14.60;99.90;;;;;;5017110;28;20411;-78
2023/09/16 07:28:57;;;;;;;23.05;20.80;;;14.90;99.90;;;;;;5019795;28;20125;-78
2023/09/16 07:31:23;;;;;;;20.85;18.98;;;15.10;99.90;;;;;;5003077;28;20555;-79
2023/09/16 07:33:49;;;;;;;20.20;18.33;;;15.30;99.90;;;;;;5005529;28;20059;-78
2023/09/16 07:36:15;;;;;;;20.27;18.48;;;15.50;99.90;;;;;;5021568;28;20399;-78
2023/09/16 07:38:41;;;;;;;19.38;17.77;;;15.60;99.90;;;;;;5006539;28;20131;-78
2023/09/16 07:41:07;;;;;;;19.65;17.95;;;15.70;99.90;;;;;;5005898;28;20607;-78
2023/09/16 07:43:33;;;;;;;19.65;17.85;;;15.80;99.90;;;;;;5004467;28;20041;-79
2023/09/16 07:45:59;;;;;;;22.42;20.52;;;15.80;99.90;;;;;;5005831;28;20041;-79
2023/09/16 07:48:25;;;;;;;20.35;18.45;;;15.90;99.90;;;;;;5007456;28;20479;-79
2023/09/16 07:50:51;;;;;;;20.17;18.38;;;15.90;99.90;;;;;;5016504;28;20037;-79
2023/09/16 07:53:17;;;;;;;21.40;19.55;;;15.90;99.90;;;;;;5006109;28;20052;-79
2023/09/16 07:55:43;;;;;;;19.75;17.90;;;16.00;99.90;;;;;;5003824;28;20109;-79
2023/09/16 07:58:09;;;;;;;21.10;19.23;;;16.10;99.90;;;;;;5023539;28;20112;-79
2023/09/16 08:00:35;;;;;;;18.92;17.25;;;16.30;99.90;;;;;;5002638;28;20132;-79
2023/09/16 08:03:01;;;;;;;18.10;16.50;;;16.50;99.90;;;;;;5005263;28;20089;-79
2023/09/16 08:05:27;;;;;;;15.98;14.43;;;16.80;99.90;;;;;;5005486;28;20033;-79
2023/09/16 08:07:53;;;;;;;17.58;16.08;;;16.90;99.90;;;;;;5020873;28;20060;-79
2023/09/16 08:10:19;;;;;;;17.15;15.40;;;17.10;99.90;;;;;;5015251;28;20101;-79
2023/09/16 08:12:44;;;;;;;16.15;14.75;;;17.20;99.90;;;;;;5006612;28;20043;-79
2023/09/16 08:15:10;;;;;;;17.00;15.38;;;17.30;99.90;;;;;;5001517;28;20049;-78
2023/09/16 08:17:39;;;;;;;17.75;15.98;;;17.40;99.90;;;;;;5020356;28;20455;-79
2023/09/16 08:20:07;;;;;;;15.30;13.90;;;17.40;99.90;;;;;;5003864;28;20037;-78
2023/09/16 08:22:33;;;;;;;16.05;14.57;;;17.40;99.90;;;;;;5004198;28;20195;-78
2023/09/16 08:24:59;;;;;;;15.70;14.25;;;17.50;99.90;;;;;;5019012;28;20079;-77
2023/09/16 08:27:25;;;;;;;14.45;13.07;;;17.50;99.90;;;;;;5005344;28;20065;-78
2023/09/16 08:29:52;;;;;;;13.70;12.40;;;17.60;99.90;;;;;;5010843;28;20113;-80
2023/09/16 08:32:21;;;;;;;13.50;12.30;;;17.70;99.90;;;;;;5018448;28;20128;-78
2023/09/16 08:34:46;;;;;;;12.73;11.43;;;17.90;99.90;;;;;;5005079;28;20139;-78
2023/09/16 08:37:12;;;;;;;12.55;11.43;;;18.10;99.90;;;;;;5006298;28;20136;-78
2023/09/16 08:39:38;;;;;;;13.10;11.80;;;18.30;99.90;;;;;;5022992;28;20049;-78
2023/09/16 08:42:14;;;;;;;13.68;12.40;;;18.50;99.90;;;;;;5020387;28;20048;-78
2023/09/16 08:44:44;;;;;;;13.00;11.80;;;18.60;99.90;;;;;;5008814;28;20072;-78
2023/09/16 08:47:14;;;;;;;14.07;12.68;;;18.60;99.90;;;;;;5001700;27;20098;-79
2023/09/16 08:49:45;;;;;;;13.13;11.93;;;18.70;99.90;;;;;;5016539;28;20037;-79
2023/09/16 08:52:16;;;;;;;11.95;10.88;;;18.90;99.90;;;;;;5003169;28;20120;-79
2023/09/16 08:54:45;;;;;;;14.18;12.88;;;19.10;99.90;;;;;;5019439;28;20128;-79
2023/09/16 08:57:11;;;;;;;10.37;9.47;;;19.30;99.90;;;;;;5002423;28;20452;-78
2023/09/16 08:59:39;;;;;;;10.05;8.98;;;19.50;99.90;;;;;;5022863;28;20101;-79
2023/09/16 09:02:06;;;;;;;10.63;8.65;;;19.60;99.90;;;;;;5004464;28;20351;-78
2023/09/16 09:04:32;;;;;;;9.95;8.95;;;19.80;99.90;;;;;;5020424;28;20045;-78
2023/09/16 09:07:00;;;;;;;9.40;8.43;;;20.00;99.90;;;;;;4985885;28;20474;-79
2023/09/16 09:09:26;;;;;;;9.13;8.23;;;20.10;99.90;;;;;;4963859;28;20513;-79
2023/09/16 09:11:53;;;;;;;9.15;8.35;;;20.30;99.90;;;;;;4981598;28;20149;-79
2023/09/16 09:14:22;;;;;;;8.73;7.93;;;20.40;99.90;;;;;;4987247;28;20499;-79
2023/09/16 09:16:50;;;;;;;10.18;9.20;;;20.50;99.90;;;;;;4968813;28;20508;-79
2023/09/16 09:19:15;;;;;;;8.60;7.80;;;20.60;99.90;;;;;;4969054;28;20047;-79
2023/09/16 09:21:44;;;;;;;9.50;8.50;;;20.60;99.90;;;;;;4988231;28;20496;-87
2023/09/16 09:24:10;;;;;;;8.82;8.00;;;20.70;99.90;;;;;;4984165;28;20044;-87
2023/09/16 09:26:36;;;;;;;10.30;9.20;;;20.80;99.90;;;;;;4992451;28;20042;-86
2023/09/16 09:29:02;;;;;;;10.05;9.15;;;20.90;99.90;;;;;;4972238;28;20042;-86
2023/09/16 09:31:30;;;;;;;9.88;7.68;;;20.90;99.90;;;;;;4978797;28;20081;-86
2023/09/16 09:33:56;;;;;;;9.00;7.28;;;21.00;99.90;;;;;;4983846;28;20046;-87
2023/09/16 09:36:21;;;;;;;8.52;7.60;;;21.10;99.90;;;;;;4985404;28;20428;-85
2023/09/16 09:38:48;;;;;;;8.95;7.80;;;21.20;99.90;;;;;;4990228;28;20099;-86
2023/09/16 09:41:15;;;;;;;8.23;7.38;;;21.30;99.90;;;;;;4971244;28;20038;-86
2023/09/16 09:43:40;;;;;;;8.98;7.70;;;21.40;99.90;;;;;;4965801;28;20042;-86
2023/09/16 09:46:06;;;;;;;7.85;7.05;;;21.50;99.90;;;;;;4970976;28;20100;-87
2023/09/16 09:48:36;;;;;;;8.40;7.50;;;21.50;99.90;;;;;;4967665;28;20039;-86
2023/09/16 09:51:02;;;;;;;10.98;7.00;;;21.60;99.90;;;;;;4985269;28;20046;-85
2023/09/16 09:53:30;;;;;;;8.60;7.63;;;21.70;99.90;;;;;;4973398;28;20097;-86
2023/09/16 09:55:56;;;;;;;8.52;6.65;;;21.90;99.90;;;;;;4975150;28;20428;-86
2023/09/16 09:58:24;;;;;;;6.38;5.28;;;22.00;99.90;;;;;;4987968;28;20048;-88
2023/09/16 10:00:51;;;;;;;6.82;5.55;;;22.00;99.90;;;;;;4988601;28;20054;-79
2023/09/16 10:03:19;;;;;;;6.40;5.47;;;22.00;99.90;;;;;;4983215;28;20275;-79
2023/09/16 10:05:45;;;;;;;8.65;7.15;;;22.10;99.90;;;;;;4970587;28;20400;-79
2023/09/16 10:08:11;;;;;;;8.93;6.45;;;22.10;99.90;;;;;;4968163;28;20473;-79
2023/09/16 10:10:37;;;;;;;6.95;6.22;;;22.20;99.90;;;;;;4977679;28;20054;-80
2023/09/16 10:13:03;;;;;;;7.47;5.68;;;22.20;99.90;;;;;;4980872;28;20045;-79
2023/09/16 10:15:32;;;;;;;6.82;6.13;;;22.30;99.90;;;;;;4967597;28;20058;-79
2023/09/16 10:17:59;;;;;;;6.28;5.43;;;22.30;99.90;;;;;;4967157;28;20302;-79
2023/09/16 10:20:29;;;;;;;6.07;5.20;;;22.30;99.90;;;;;;4967542;28;20415;-79
2023/09/16 10:22:57;;;;;;;6.78;5.22;;;22.40;99.90;;;;;;4968090;28;20378;-79
2023/09/16 10:25:23;;;;;;;6.00;4.95;;;22.50;99.90;;;;;;4964956;28;20046;-79
2023/09/16 10:27:56;;;;;;;5.50;4.93;;;22.70;99.90;;;;;;4962165;28;20549;-78
2023/09/16 10:30:23;;;;;;;6.15;5.20;;;22.70;99.90;;;;;;4967863;28;20314;-79
2023/09/16 10:32:49;;;;;;;6.95;4.70;;;22.80;99.90;;;;;;4984805;28;20579;-78
2023/09/16 10:35:16;;;;;;;5.15;4.30;;;22.90;99.90;;;;;;4971121;28;20049;-78
2023/09/16 10:37:44;;;;;;;8.05;4.93;;;23.00;99.90;;;;;;4978664;28;20488;-78
2023/09/16 10:40:12;;;;;;;5.68;4.82;;;23.10;99.90;;;;;;4967746;28;20054;-78
2023/09/16 10:42:44;;;;;;;5.63;5.03;;;23.10;99.90;;;;;;4966367;28;20042;-79
2023/09/16 10:45:13;;;;;;;5.68;4.78;;;23.20;99.90;;;;;;4988853;28;20046;-79
2023/09/16 10:47:40;;;;;;;6.32;5.00;;;23.30;99.90;;;;;;4976753;28;20053;-79
2023/09/16 10:50:06;;;;;;;6.07;4.63;;;23.30;99.90;;;;;;5066582;28;20416;-79
2023/09/16 10:52:55;;;;;;;6.32;4.80;;;23.30;99.90;;;;;;4992501;28;20057;-79
2023/09/16 10:55:24;;;;;;;4.97;4.38;;;23.30;99.90;;;;;;4984725;28;20137;-78
2023/09/16 10:58:16;;;;;;;6.15;4.38;;;23.30;99.90;;;;;;4992125;28;20469;-79
2023/09/16 11:00:50;;;;;;;5.43;3.95;;;23.30;99.90;;;;;;4996558;28;20504;-79
2023/09/16 11:03:20;;;;;;;5.93;3.92;;;23.40;99.90;;;;;;4975151;28;20522;-79
2023/09/16 11:05:47;;;;;;;4.72;4.00;;;23.40;99.90;;;;;;4942491;28;1178077;-79
2023/09/16 11:08:13;;;;;;;4.00;2.88;;;23.40;99.90;;;;;;4999217;28;20046;-79
2023/09/16 11:10:39;;;;;;;5.50;4.00;;;23.40;99.90;;;;;;4995700;28;20385;-79
2023/09/16 11:13:08;;;;;;;6.72;3.60;;;23.40;99.90;;;;;;5010145;28;20049;-79
2023/09/16 11:15:35;;;;;;;5.07;3.42;;;23.50;99.90;;;;;;4998640;28;20057;-79
2023/09/16 11:18:08;;;;;;;5.63;3.40;;;23.60;99.90;;;;;;4983913;28;20045;-78
2023/09/16 11:20:36;;;;;;;5.45;3.58;;;23.70;99.90;;;;;;4999745;28;20635;-78
2023/09/16 11:23:06;;;;;;;5.07;3.67;;;23.90;99.90;;;;;;4989373;28;20372;-78
2023/09/16 11:25:40;;;;;;;;;;;23.90;99.90;;;;;;4985870;28;20107;-79
2023/09/16 11:28:07;;;;;;;;;;;24.00;99.90;;;;;;4982883;28;20005;-79
2023/09/16 11:30:33;;;;;;;;;;;24.10;99.90;;;;;;4985839;28;19921;-79
2023/09/16 11:32:59;;;;;;;;;;;24.10;99.90;;;;;;4984438;28;20016;-79
2023/09/16 11:35:28;;;;;;;;;;;24.20;99.90;;;;;;4993764;28;20373;-78
2023/09/16 11:37:54;;;;;;;;;;;24.20;99.90;;;;;;4983490;28;19936;-78
2023/09/16 11:40:33;;;;;;;;;;;24.30;99.70;;;;;;4999878;28;20442;-78
2023/09/16 11:42:59;;;;;;;;;;;24.30;99.90;;;;;;4997474;28;20462;-78
2023/09/16 11:45:25;;;;;;;;;;;24.30;99.90;;;;;;5007062;28;19921;-78
2023/09/16 11:47:51;;;;;;;;;;;24.30;99.90;;;;;;4981835;28;19927;-79
2023/09/16 11:50:24;;;;;;;;;;;24.30;99.90;;;;;;5002508;28;20012;-78
2023/09/16 11:52:50;;;;;;;;;;;24.20;99.90;;;;;;4999243;28;20546;-78
2023/09/16 11:55:19;;;;;;;;;;;24.10;99.90;;;;;;5002511;28;19925;-78
2023/09/16 11:57:45;;;;;;;;;;;24.00;99.90;;;;;;4998101;28;20198;-78
2023/09/16 12:00:14;;;;;;;;;;;24.00;98.80;;;;;;4985445;28;19921;-78
2023/09/16 12:02:42;;;;;;;;;;;23.90;99.70;;;;;;4998957;28;20283;-78
2023/09/16 12:05:09;;;;;;;;;;;23.80;99.90;;;;;;4982249;28;19921;-78
2023/09/16 12:07:35;;;;;;;;;;;23.80;99.90;;;;;;4990716;28;19929;-77
2023/09/16 12:10:05;;;;;;;;;;;23.70;99.90;;;;;;4977204;28;19968;-77
2023/09/16 12:12:30;;;;;;;;;;;23.70;99.90;;;;;;4972467;28;20004;-77
2023/09/16 12:14:56;;;;;;;;;;;23.60;99.90;;;;;;4979527;28;20029;-80
2023/09/16 12:17:25;;;;;;;;;;;23.60;99.90;;;;;;4975359;28;20020;-78
2023/09/16 12:19:52;;;;;;;;;;;23.70;99.90;;;;;;4970671;28;19930;-78
2023/09/16 12:22:18;;;;;;;;;;;23.80;99.70;;;;;;4977009;28;19929;-78
2023/09/16 12:24:44;;;;;;;;;;;23.90;98.90;;;;;;4974231;28;19925;-78
2023/09/16 12:27:10;;;;;;;;;;;24.00;99.90;;;;;;4986647;28;20335;-79
2023/09/16 12:29:36;;;;;;;;;;;24.10;99.70;;;;;;4980200;28;19951;-80
2023/09/16 12:32:09;;;;;;;;;;;24.10;99.60;;;;;;4979918;28;19921;-80
2023/09/16 12:34:35;;;;;;;;;;;24.10;97.50;;;;;;4978240;28;19967;-79
2023/09/16 12:37:02;;;;;;;;;;;24.00;99.40;;;;;;4977332;28;19926;-79
2023/09/16 12:39:28;;;;;;;;;;;24.00;98.00;;;;;;4975398;28;20020;-79
2023/09/16 12:41:58;;;;;;;;;;;24.00;97.90;;;;;;4975214;28;19968;-79
2023/09/16 12:44:24;;;;;;;;;;;24.00;96.80;;;;;;4970698;28;20426;-79
2023/09/16 12:46:50;;;;;;;;;;;23.90;97.00;;;;;;4979601;28;19925;-79
2023/09/16 12:49:16;;;;;;;;;;;24.00;96.60;;;;;;4985150;28;19929;-79